sensor_id;sensor_type;location;lat;lon;timestamp;temperature;humidity
50758;DHT22;36732;47.980;11.652;2024-03-02T00:00:19;9.70;67.70
50758;DHT22;36732;47.980;11.652;2024-03-02T00:02:47;9.70;67.70
50758;DHT22;36732;47.980;11.652;2024-03-02T00:05:19;9.70;68.20
50758;DHT22;36732;47.980;11.652;2024-03-02T00:07:52;9.70;67.60
50758;DHT22;36732;47.980;11.652;2024-03-02T00:10:20;9.70;67.60
50758;DHT22;36732;47.980;11.652;2024-03-02T00:12:51;9.70;67.60
50758;DHT22;36732;47.980;11.652;2024-03-02T00:15:42;9.70;67.60
50758;DHT22;36732;47.980;11.652;2024-03-02T00:18:13;9.60;67.60
50758;DHT22;36732;47.980;11.652;2024-03-02T00:20:43;9.60;67.50
50758;DHT22;36732;47.980;11.652;2024-03-02T00:23:10;9.60;67.50
50758;DHT22;36732;47.980;11.652;2024-03-02T00:25:56;9.60;67.60
50758;DHT22;36732;47.980;11.652;2024-03-02T00:28:29;9.60;67.70
50758;DHT22;36732;47.980;11.652;2024-03-02T00:31:08;9.60;67.60
50758;DHT22;36732;47.980;11.652;2024-03-02T00:33:47;9.60;67.50
50758;DHT22;36732;47.980;11.652;2024-03-02T00:36:22;9.60;67.80
50758;DHT22;36732;47.980;11.652;2024-03-02T00:38:51;9.50;67.60
50758;DHT22;36732;47.980;11.652;2024-03-02T00:41:22;9.60;67.70
50758;DHT22;36732;47.980;11.652;2024-03-02T00:44:04;9.50;67.70
50758;DHT22;36732;47.980;11.652;2024-03-02T00:46:38;9.50;67.80
50758;DHT22;36732;47.980;11.652;2024-03-02T00:49:25;9.50;67.80
50758;DHT22;36732;47.980;11.652;2024-03-02T00:51:53;9.50;67.80
50758;DHT22;36732;47.980;11.652;2024-03-02T00:54:24;9.50;67.70
50758;DHT22;36732;47.980;11.652;2024-03-02T00:56:51;9.50;67.70
50758;DHT22;36732;47.980;11.652;2024-03-02T00:59:20;9.60;67.80
50758;DHT22;36732;47.980;11.652;2024-03-02T01:01:48;9.60;67.60
50758;DHT22;36732;47.980;11.652;2024-03-02T01:04:14;9.50;67.70
50758;DHT22;36732;47.980;11.652;2024-03-02T01:06:42;9.50;67.70
50758;DHT22;36732;47.980;11.652;2024-03-02T01:09:08;9.50;67.70
50758;DHT22;36732;47.980;11.652;2024-03-02T01:11:33;9.50;67.70
50758;DHT22;36732;47.980;11.652;2024-03-02T01:13:59;9.60;67.70
50758;DHT22;36732;47.980;11.652;2024-03-02T01:16:25;9.50;67.70
50758;DHT22;36732;47.980;11.652;2024-03-02T01:18:50;9.60;67.70
50758;DHT22;36732;47.980;11.652;2024-03-02T01:21:16;9.60;67.70
50758;DHT22;36732;47.980;11.652;2024-03-02T01:23:42;9.60;67.70
50758;DHT22;36732;47.980;11.652;2024-03-02T01:26:08;9.60;67.70
50758;DHT22;36732;47.980;11.652;2024-03-02T01:28:34;9.60;67.60
50758;DHT22;36732;47.980;11.652;2024-03-02T01:31:00;9.60;67.60
50758;DHT22;36732;47.980;11.652;2024-03-02T01:33:26;9.60;67.60
50758;DHT22;36732;47.980;11.652;2024-03-02T01:35:52;9.60;67.60
50758;DHT22;36732;47.980;11.652;2024-03-02T01:38:17;9.60;67.70
50758;DHT22;36732;47.980;11.652;2024-03-02T01:40:43;9.60;67.60
50758;DHT22;36732;47.980;11.652;2024-03-02T01:43:09;9.60;67.60
50758;DHT22;36732;47.980;11.652;2024-03-02T01:45:36;9.60;67.60
50758;DHT22;36732;47.980;11.652;2024-03-02T01:48:06;9.60;67.60
50758;DHT22;36732;47.980;11.652;2024-03-02T01:50:33;9.60;67.60
50758;DHT22;36732;47.980;11.652;2024-03-02T01:52:59;9.60;67.60
50758;DHT22;36732;47.980;11.652;2024-03-02T01:55:26;9.60;67.60
50758;DHT22;36732;47.980;11.652;2024-03-02T01:57:53;9.60;67.60
50758;DHT22;36732;47.980;11.652;2024-03-02T02:00:22;9.60;67.70
50758;DHT22;36732;47.980;11.652;2024-03-02T02:02:50;9.60;67.70
50758;DHT22;36732;47.980;11.652;2024-03-02T02:05:17;9.60;67.60
50758;DHT22;36732;47.980;11.652;2024-03-02T02:07:43;9.60;67.60
50758;DHT22;36732;47.980;11.652;2024-03-02T02:10:12;9.60;67.60
50758;DHT22;36732;47.980;11.652;2024-03-02T02:12:38;9.60;67.60
50758;DHT22;36732;47.980;11.652;2024-03-02T02:15:25;9.60;67.60
50758;DHT22;36732;47.980;11.652;2024-03-02T02:17:52;9.60;67.80
50758;DHT22;36732;47.980;11.652;2024-03-02T02:20:18;9.60;67.60
50758;DHT22;36732;47.980;11.652;2024-03-02T02:23:00;9.60;67.70
50758;DHT22;36732;47.980;11.652;2024-03-02T02:25:26;9.60;67.90
50758;DHT22;36732;47.980;11.652;2024-03-02T02:31:38;9.60;68.00
50758;DHT22;36732;47.980;11.652;2024-03-02T02:34:05;9.60;67.90
50758;DHT22;36732;47.980;11.652;2024-03-02T02:36:31;9.50;67.90
50758;DHT22;36732;47.980;11.652;2024-03-02T02:39:00;9.50;67.90
50758;DHT22;36732;47.980;11.652;2024-03-02T02:41:29;9.50;68.00
50758;DHT22;36732;47.980;11.652;2024-03-02T02:43:55;9.50;68.20
50758;DHT22;36732;47.980;11.652;2024-03-02T02:46:21;9.50;68.10
50758;DHT22;36732;47.980;11.652;2024-03-02T02:48:46;9.50;68.20
50758;DHT22;36732;47.980;11.652;2024-03-02T02:51:12;9.50;68.20
50758;DHT22;36732;47.980;11.652;2024-03-02T02:53:38;9.50;68.30
50758;DHT22;36732;47.980;11.652;2024-03-02T02:56:06;9.50;68.30
50758;DHT22;36732;47.980;11.652;2024-03-02T02:58:32;9.50;68.40
50758;DHT22;36732;47.980;11.652;2024-03-02T03:00:58;9.50;68.30
50758;DHT22;36732;47.980;11.652;2024-03-02T03:03:24;9.50;68.40
50758;DHT22;36732;47.980;11.652;2024-03-02T03:05:49;9.50;68.40
50758;DHT22;36732;47.980;11.652;2024-03-02T03:08:15;9.50;68.40
50758;DHT22;36732;47.980;11.652;2024-03-02T03:10:41;9.50;68.40
50758;DHT22;36732;47.980;11.652;2024-03-02T03:13:07;9.50;68.40
50758;DHT22;36732;47.980;11.652;2024-03-02T03:15:34;9.50;68.40
50758;DHT22;36732;47.980;11.652;2024-03-02T03:18:02;9.50;68.40
50758;DHT22;36732;47.980;11.652;2024-03-02T03:20:29;9.50;68.40
50758;DHT22;36732;47.980;11.652;2024-03-02T03:22:55;9.50;68.40
50758;DHT22;36732;47.980;11.652;2024-03-02T03:25:22;9.50;68.40
50758;DHT22;36732;47.980;11.652;2024-03-02T03:27:48;9.50;68.40
50758;DHT22;36732;47.980;11.652;2024-03-02T03:30:13;9.50;68.40
50758;DHT22;36732;47.980;11.652;2024-03-02T03:32:39;9.50;68.40
50758;DHT22;36732;47.980;11.652;2024-03-02T03:35:06;9.60;68.40
50758;DHT22;36732;47.980;11.652;2024-03-02T03:37:32;9.60;68.40
50758;DHT22;36732;47.980;11.652;2024-03-02T03:39:59;9.60;68.40
50758;DHT22;36732;47.980;11.652;2024-03-02T03:42:25;9.60;68.30
50758;DHT22;36732;47.980;11.652;2024-03-02T03:44:51;9.60;68.30
50758;DHT22;36732;47.980;11.652;2024-03-02T03:47:17;9.60;68.30
50758;DHT22;36732;47.980;11.652;2024-03-02T03:49:42;9.60;68.30
50758;DHT22;36732;47.980;11.652;2024-03-02T03:52:08;9.60;68.30
50758;DHT22;36732;47.980;11.652;2024-03-02T03:54:34;9.60;68.30
50758;DHT22;36732;47.980;11.652;2024-03-02T03:56:59;9.60;68.30
50758;DHT22;36732;47.980;11.652;2024-03-02T03:59:25;9.60;68.30
50758;DHT22;36732;47.980;11.652;2024-03-02T04:01:51;9.50;68.30
50758;DHT22;36732;47.980;11.652;2024-03-02T04:04:17;9.60;68.20
50758;DHT22;36732;47.980;11.652;2024-03-02T04:06:42;9.60;68.20
50758;DHT22;36732;47.980;11.652;2024-03-02T04:09:08;9.60;68.20
50758;DHT22;36732;47.980;11.652;2024-03-02T04:11:34;9.50;68.20
50758;DHT22;36732;47.980;11.652;2024-03-02T04:13:59;9.60;68.20
50758;DHT22;36732;47.980;11.652;2024-03-02T04:16:26;9.60;68.20
50758;DHT22;36732;47.980;11.652;2024-03-02T04:18:52;9.50;68.20
50758;DHT22;36732;47.980;11.652;2024-03-02T04:21:17;9.50;68.10
50758;DHT22;36732;47.980;11.652;2024-03-02T04:23:43;9.60;68.10
50758;DHT22;36732;47.980;11.652;2024-03-02T04:26:09;9.60;68.10
50758;DHT22;36732;47.980;11.652;2024-03-02T04:28:34;9.50;68.10
50758;DHT22;36732;47.980;11.652;2024-03-02T04:31:00;9.50;68.10
50758;DHT22;36732;47.980;11.652;2024-03-02T04:33:26;9.50;68.10
50758;DHT22;36732;47.980;11.652;2024-03-02T04:35:51;9.50;68.10
50758;DHT22;36732;47.980;11.652;2024-03-02T04:38:17;9.50;68.10
50758;DHT22;36732;47.980;11.652;2024-03-02T04:40:43;9.50;68.20
50758;DHT22;36732;47.980;11.652;2024-03-02T04:43:08;9.50;68.30
50758;DHT22;36732;47.980;11.652;2024-03-02T04:45:37;9.50;68.30
50758;DHT22;36732;47.980;11.652;2024-03-02T04:48:03;9.50;68.40
50758;DHT22;36732;47.980;11.652;2024-03-02T04:50:29;9.50;68.40
50758;DHT22;36732;47.980;11.652;2024-03-02T04:52:55;9.50;68.40
50758;DHT22;36732;47.980;11.652;2024-03-02T04:55:21;9.50;68.50
50758;DHT22;36732;47.980;11.652;2024-03-02T04:57:52;9.50;69.20
50758;DHT22;36732;47.980;11.652;2024-03-02T05:00:20;9.50;68.50
50758;DHT22;36732;47.980;11.652;2024-03-02T05:02:46;9.50;68.50
50758;DHT22;36732;47.980;11.652;2024-03-02T05:05:12;9.50;68.50
50758;DHT22;36732;47.980;11.652;2024-03-02T05:07:37;9.50;68.50
50758;DHT22;36732;47.980;11.652;2024-03-02T05:10:03;9.50;68.50
50758;DHT22;36732;47.980;11.652;2024-03-02T05:12:29;9.50;68.50
50758;DHT22;36732;47.980;11.652;2024-03-02T05:15:10;9.50;68.50
50758;DHT22;36732;47.980;11.652;2024-03-02T05:17:37;9.50;68.50
50758;DHT22;36732;47.980;11.652;2024-03-02T05:20:05;9.50;68.50
50758;DHT22;36732;47.980;11.652;2024-03-02T05:22:31;9.50;68.50
50758;DHT22;36732;47.980;11.652;2024-03-02T05:24:57;9.50;68.50
50758;DHT22;36732;47.980;11.652;2024-03-02T05:27:24;9.50;68.50
50758;DHT22;36732;47.980;11.652;2024-03-02T05:29:50;9.50;68.50
50758;DHT22;36732;47.980;11.652;2024-03-02T05:32:16;9.50;68.40
50758;DHT22;36732;47.980;11.652;2024-03-02T05:34:41;9.50;68.40
50758;DHT22;36732;47.980;11.652;2024-03-02T05:37:07;9.50;68.40
50758;DHT22;36732;47.980;11.652;2024-03-02T05:39:33;9.50;68.40
50758;DHT22;36732;47.980;11.652;2024-03-02T05:41:58;9.50;68.40
50758;DHT22;36732;47.980;11.652;2024-03-02T05:44:24;9.50;68.40
50758;DHT22;36732;47.980;11.652;2024-03-02T05:46:50;9.50;68.40
50758;DHT22;36732;47.980;11.652;2024-03-02T05:49:15;9.50;68.40
50758;DHT22;36732;47.980;11.652;2024-03-02T05:51:41;9.50;68.40
50758;DHT22;36732;47.980;11.652;2024-03-02T05:54:07;9.50;68.40
50758;DHT22;36732;47.980;11.652;2024-03-02T05:56:32;9.50;68.40
50758;DHT22;36732;47.980;11.652;2024-03-02T05:58:58;9.50;68.40
50758;DHT22;36732;47.980;11.652;2024-03-02T06:01:43;9.50;68.30
50758;DHT22;36732;47.980;11.652;2024-03-02T06:04:11;9.50;68.40
50758;DHT22;36732;47.980;11.652;2024-03-02T06:06:37;9.50;68.40
50758;DHT22;36732;47.980;11.652;2024-03-02T06:09:03;9.50;68.40
50758;DHT22;36732;47.980;11.652;2024-03-02T06:11:35;9.50;68.40
50758;DHT22;36732;47.980;11.652;2024-03-02T06:14:05;9.50;68.50
50758;DHT22;36732;47.980;11.652;2024-03-02T06:16:31;9.50;68.50
50758;DHT22;36732;47.980;11.652;2024-03-02T06:18:57;9.50;68.50
50758;DHT22;36732;47.980;11.652;2024-03-02T06:21:24;9.50;68.60
50758;DHT22;36732;47.980;11.652;2024-03-02T06:23:50;9.50;68.60
50758;DHT22;36732;47.980;11.652;2024-03-02T06:26:15;9.50;68.50
50758;DHT22;36732;47.980;11.652;2024-03-02T06:28:41;9.40;68.60
50758;DHT22;36732;47.980;11.652;2024-03-02T06:31:07;9.40;68.70
50758;DHT22;36732;47.980;11.652;2024-03-02T06:33:33;9.40;68.80
50758;DHT22;36732;47.980;11.652;2024-03-02T06:35:58;9.40;68.80
50758;DHT22;36732;47.980;11.652;2024-03-02T06:38:24;9.40;68.90
50758;DHT22;36732;47.980;11.652;2024-03-02T06:40:50;9.40;68.80
50758;DHT22;36732;47.980;11.652;2024-03-02T06:43:15;9.40;68.80
50758;DHT22;36732;47.980;11.652;2024-03-02T06:45:41;9.40;68.80
50758;DHT22;36732;47.980;11.652;2024-03-02T06:48:07;9.50;68.90
50758;DHT22;36732;47.980;11.652;2024-03-02T06:50:33;9.50;68.90
50758;DHT22;36732;47.980;11.652;2024-03-02T06:52:58;9.50;68.90
50758;DHT22;36732;47.980;11.652;2024-03-02T06:55:24;9.40;68.80
50758;DHT22;36732;47.980;11.652;2024-03-02T06:57:51;9.50;68.90
50758;DHT22;36732;47.980;11.652;2024-03-02T07:00:17;9.50;69.00
50758;DHT22;36732;47.980;11.652;2024-03-02T07:02:45;9.50;69.00
50758;DHT22;36732;47.980;11.652;2024-03-02T07:05:11;9.50;69.00
50758;DHT22;36732;47.980;11.652;2024-03-02T07:07:37;9.50;69.00
50758;DHT22;36732;47.980;11.652;2024-03-02T07:10:04;9.50;69.00
50758;DHT22;36732;47.980;11.652;2024-03-02T07:12:30;9.50;69.10
50758;DHT22;36732;47.980;11.652;2024-03-02T07:14:57;9.50;69.10
50758;DHT22;36732;47.980;11.652;2024-03-02T07:17:32;9.50;69.10
50758;DHT22;36732;47.980;11.652;2024-03-02T07:19:58;9.50;69.10
50758;DHT22;36732;47.980;11.652;2024-03-02T07:22:24;9.50;69.10
50758;DHT22;36732;47.980;11.652;2024-03-02T07:24:49;9.50;69.20
50758;DHT22;36732;47.980;11.652;2024-03-02T07:27:16;9.50;69.30
50758;DHT22;36732;47.980;11.652;2024-03-02T07:29:42;9.50;69.30
50758;DHT22;36732;47.980;11.652;2024-03-02T07:32:09;9.50;69.30
50758;DHT22;36732;47.980;11.652;2024-03-02T07:34:36;9.50;69.30
50758;DHT22;36732;47.980;11.652;2024-03-02T07:37:03;9.50;69.30
50758;DHT22;36732;47.980;11.652;2024-03-02T07:39:29;9.50;69.40
50758;DHT22;36732;47.980;11.652;2024-03-02T07:41:55;9.50;69.40
50758;DHT22;36732;47.980;11.652;2024-03-02T07:44:21;9.50;69.40
50758;DHT22;36732;47.980;11.652;2024-03-02T07:46:47;9.50;69.40
50758;DHT22;36732;47.980;11.652;2024-03-02T07:49:15;9.50;69.50
50758;DHT22;36732;47.980;11.652;2024-03-02T07:51:42;9.60;69.60
50758;DHT22;36732;47.980;11.652;2024-03-02T07:54:08;9.60;69.60
50758;DHT22;36732;47.980;11.652;2024-03-02T07:56:34;9.60;69.60
50758;DHT22;36732;47.980;11.652;2024-03-02T07:59:04;9.60;69.60
50758;DHT22;36732;47.980;11.652;2024-03-02T08:01:30;9.60;69.60
50758;DHT22;36732;47.980;11.652;2024-03-02T08:04:00;9.60;69.60
50758;DHT22;36732;47.980;11.652;2024-03-02T08:06:28;9.60;69.60
50758;DHT22;36732;47.980;11.652;2024-03-02T08:08:54;9.60;69.50
50758;DHT22;36732;47.980;11.652;2024-03-02T08:11:21;9.60;69.50
50758;DHT22;36732;47.980;11.652;2024-03-02T08:13:47;9.60;69.60
50758;DHT22;36732;47.980;11.652;2024-03-02T08:16:16;9.60;69.60
50758;DHT22;36732;47.980;11.652;2024-03-02T08:18:45;9.60;69.60
50758;DHT22;36732;47.980;11.652;2024-03-02T08:21:12;9.60;69.60
50758;DHT22;36732;47.980;11.652;2024-03-02T08:23:38;9.60;69.60
50758;DHT22;36732;47.980;11.652;2024-03-02T08:26:06;9.60;69.50
50758;DHT22;36732;47.980;11.652;2024-03-02T08:28:32;9.60;69.50
50758;DHT22;36732;47.980;11.652;2024-03-02T08:30:58;9.60;69.60
50758;DHT22;36732;47.980;11.652;2024-03-02T08:33:24;9.60;69.70
50758;DHT22;36732;47.980;11.652;2024-03-02T08:35:49;9.60;70.40
50758;DHT22;36732;47.980;11.652;2024-03-02T08:38:15;9.60;69.80
50758;DHT22;36732;47.980;11.652;2024-03-02T08:40:41;9.60;69.80
50758;DHT22;36732;47.980;11.652;2024-03-02T08:43:07;9.60;69.80
50758;DHT22;36732;47.980;11.652;2024-03-02T08:45:33;9.60;69.80
50758;DHT22;36732;47.980;11.652;2024-03-02T08:48:00;9.60;69.80
50758;DHT22;36732;47.980;11.652;2024-03-02T08:50:25;9.60;69.70
50758;DHT22;36732;47.980;11.652;2024-03-02T08:52:51;9.60;70.40
50758;DHT22;36732;47.980;11.652;2024-03-02T08:55:17;9.60;69.70
50758;DHT22;36732;47.980;11.652;2024-03-02T08:57:42;9.70;70.30
50758;DHT22;36732;47.980;11.652;2024-03-02T09:00:08;9.70;69.60
50758;DHT22;36732;47.980;11.652;2024-03-02T09:02:35;9.70;69.60
50758;DHT22;36732;47.980;11.652;2024-03-02T09:05:01;9.70;69.60
50758;DHT22;36732;47.980;11.652;2024-03-02T09:07:27;9.70;69.60
50758;DHT22;36732;47.980;11.652;2024-03-02T09:09:52;9.70;69.60
50758;DHT22;36732;47.980;11.652;2024-03-02T09:12:19;9.70;69.70
50758;DHT22;36732;47.980;11.652;2024-03-02T09:14:45;9.70;69.80
50758;DHT22;36732;47.980;11.652;2024-03-02T09:17:12;9.70;69.90
50758;DHT22;36732;47.980;11.652;2024-03-02T09:19:39;9.80;70.00
50758;DHT22;36732;47.980;11.652;2024-03-02T09:22:04;9.80;70.10
50758;DHT22;36732;47.980;11.652;2024-03-02T09:24:31;9.80;70.10
50758;DHT22;36732;47.980;11.652;2024-03-02T09:26:58;9.80;70.10
50758;DHT22;36732;47.980;11.652;2024-03-02T09:29:24;9.80;70.10
50758;DHT22;36732;47.980;11.652;2024-03-02T09:31:50;9.80;70.90
50758;DHT22;36732;47.980;11.652;2024-03-02T09:34:16;9.80;70.20
50758;DHT22;36732;47.980;11.652;2024-03-02T09:36:42;9.80;70.20
50758;DHT22;36732;47.980;11.652;2024-03-02T09:39:08;9.80;70.20
50758;DHT22;36732;47.980;11.652;2024-03-02T09:41:38;9.90;70.30
50758;DHT22;36732;47.980;11.652;2024-03-02T09:44:05;9.90;70.50
50758;DHT22;36732;47.980;11.652;2024-03-02T09:46:31;9.90;70.50
50758;DHT22;36732;47.980;11.652;2024-03-02T09:48:57;9.90;70.50
50758;DHT22;36732;47.980;11.652;2024-03-02T09:51:23;9.90;70.50
50758;DHT22;36732;47.980;11.652;2024-03-02T09:53:49;9.90;70.50
50758;DHT22;36732;47.980;11.652;2024-03-02T09:56:15;9.90;70.50
50758;DHT22;36732;47.980;11.652;2024-03-02T09:58:44;9.90;70.60
50758;DHT22;36732;47.980;11.652;2024-03-02T10:01:10;9.90;70.60
50758;DHT22;36732;47.980;11.652;2024-03-02T10:03:37;10.00;70.70
50758;DHT22;36732;47.980;11.652;2024-03-02T10:06:22;10.00;70.70
50758;DHT22;36732;47.980;11.652;2024-03-02T10:08:49;10.00;70.90
50758;DHT22;36732;47.980;11.652;2024-03-02T10:11:34;10.00;70.60
50758;DHT22;36732;47.980;11.652;2024-03-02T10:16:43;10.10;70.70
50758;DHT22;36732;47.980;11.652;2024-03-02T10:19:19;10.10;70.80
50758;DHT22;36732;47.980;11.652;2024-03-02T10:21:51;10.10;70.40
50758;DHT22;36732;47.980;11.652;2024-03-02T10:24:18;10.20;70.50
50758;DHT22;36732;47.980;11.652;2024-03-02T10:26:45;10.20;70.40
50758;DHT22;36732;47.980;11.652;2024-03-02T10:29:11;10.20;70.50
50758;DHT22;36732;47.980;11.652;2024-03-02T10:31:39;10.20;70.50
50758;DHT22;36732;47.980;11.652;2024-03-02T10:34:06;10.20;70.40
50758;DHT22;36732;47.980;11.652;2024-03-02T10:36:35;10.20;70.40
50758;DHT22;36732;47.980;11.652;2024-03-02T10:39:05;10.20;70.40
50758;DHT22;36732;47.980;11.652;2024-03-02T10:41:34;10.30;70.40
50758;DHT22;36732;47.980;11.652;2024-03-02T10:44:03;10.30;70.30
50758;DHT22;36732;47.980;11.652;2024-03-02T10:46:32;10.30;70.40
50758;DHT22;36732;47.980;11.652;2024-03-02T10:49:00;10.30;70.30
50758;DHT22;36732;47.980;11.652;2024-03-02T10:51:27;10.30;70.30
50758;DHT22;36732;47.980;11.652;2024-03-02T10:54:00;10.40;70.30
50758;DHT22;36732;47.980;11.652;2024-03-02T10:56:46;10.40;70.30
50758;DHT22;36732;47.980;11.652;2024-03-02T10:59:33;10.40;70.30
50758;DHT22;36732;47.980;11.652;2024-03-02T11:02:01;10.40;70.20
50758;DHT22;36732;47.980;11.652;2024-03-02T11:04:32;10.40;70.20
50758;DHT22;36732;47.980;11.652;2024-03-02T11:07:02;10.50;70.10
50758;DHT22;36732;47.980;11.652;2024-03-02T11:09:36;10.50;70.10
50758;DHT22;36732;47.980;11.652;2024-03-02T11:12:42;10.50;70.10
50758;DHT22;36732;47.980;11.652;2024-03-02T11:15:10;10.50;70.20
50758;DHT22;36732;47.980;11.652;2024-03-02T11:17:40;10.60;70.20
50758;DHT22;36732;47.980;11.652;2024-03-02T11:20:08;10.60;70.20
50758;DHT22;36732;47.980;11.652;2024-03-02T11:22:36;10.60;70.20
50758;DHT22;36732;47.980;11.652;2024-03-02T11:25:02;10.60;70.30
50758;DHT22;36732;47.980;11.652;2024-03-02T11:33:08;10.70;70.60
50758;DHT22;36732;47.980;11.652;2024-03-02T11:35:52;10.70;70.40
50758;DHT22;36732;47.980;11.652;2024-03-02T11:38:18;10.70;70.40
50758;DHT22;36732;47.980;11.652;2024-03-02T11:40:44;10.80;70.30
50758;DHT22;36732;47.980;11.652;2024-03-02T11:43:11;10.80;70.20
50758;DHT22;36732;47.980;11.652;2024-03-02T11:45:37;10.80;70.10
50758;DHT22;36732;47.980;11.652;2024-03-02T11:48:08;10.90;70.10
50758;DHT22;36732;47.980;11.652;2024-03-02T11:50:49;10.90;70.00
50758;DHT22;36732;47.980;11.652;2024-03-02T11:53:15;10.90;69.90
50758;DHT22;36732;47.980;11.652;2024-03-02T11:55:42;11.00;70.00
50758;DHT22;36732;47.980;11.652;2024-03-02T11:58:12;11.00;69.90
50758;DHT22;36732;47.980;11.652;2024-03-02T12:00:38;11.00;69.80
50758;DHT22;36732;47.980;11.652;2024-03-02T12:03:06;11.00;69.60
50758;DHT22;36732;47.980;11.652;2024-03-02T12:05:33;11.10;69.50
50758;DHT22;36732;47.980;11.652;2024-03-02T12:08:02;11.10;69.40
50758;DHT22;36732;47.980;11.652;2024-03-02T12:10:29;11.10;69.30
50758;DHT22;36732;47.980;11.652;2024-03-02T12:12:58;11.10;69.10
50758;DHT22;36732;47.980;11.652;2024-03-02T12:15:32;11.20;69.20
50758;DHT22;36732;47.980;11.652;2024-03-02T12:18:00;11.20;69.00
50758;DHT22;36732;47.980;11.652;2024-03-02T12:20:28;11.20;69.10
50758;DHT22;36732;47.980;11.652;2024-03-02T12:22:58;11.20;69.00
50758;DHT22;36732;47.980;11.652;2024-03-02T12:25:26;11.20;69.00
50758;DHT22;36732;47.980;11.652;2024-03-02T12:27:54;11.30;69.30
50758;DHT22;36732;47.980;11.652;2024-03-02T12:30:21;11.30;69.30
50758;DHT22;36732;47.980;11.652;2024-03-02T12:32:48;11.30;69.00
50758;DHT22;36732;47.980;11.652;2024-03-02T12:35:14;11.40;69.00
50758;DHT22;36732;47.980;11.652;2024-03-02T12:37:48;11.40;69.00
50758;DHT22;36732;47.980;11.652;2024-03-02T12:40:16;11.50;68.80
50758;DHT22;36732;47.980;11.652;2024-03-02T12:42:46;11.50;68.90
50758;DHT22;36732;47.980;11.652;2024-03-02T12:45:13;11.50;68.70
50758;DHT22;36732;47.980;11.652;2024-03-02T12:47:40;11.50;68.50
50758;DHT22;36732;47.980;11.652;2024-03-02T12:50:07;11.60;68.20
50758;DHT22;36732;47.980;11.652;2024-03-02T12:52:33;11.60;68.10
50758;DHT22;36732;47.980;11.652;2024-03-02T12:55:05;11.60;67.90
50758;DHT22;36732;47.980;11.652;2024-03-02T12:57:33;11.70;67.90
50758;DHT22;36732;47.980;11.652;2024-03-02T13:00:05;11.70;67.90
50758;DHT22;36732;47.980;11.652;2024-03-02T13:02:36;11.70;67.80
50758;DHT22;36732;47.980;11.652;2024-03-02T13:05:06;11.70;67.70
50758;DHT22;36732;47.980;11.652;2024-03-02T13:07:36;11.70;67.30
50758;DHT22;36732;47.980;11.652;2024-03-02T13:10:03;11.70;67.40
50758;DHT22;36732;47.980;11.652;2024-03-02T13:12:30;11.80;67.30
50758;DHT22;36732;47.980;11.652;2024-03-02T13:14:58;11.80;67.20
50758;DHT22;36732;47.980;11.652;2024-03-02T13:17:24;11.80;67.10
50758;DHT22;36732;47.980;11.652;2024-03-02T13:19:58;11.80;67.00
50758;DHT22;36732;47.980;11.652;2024-03-02T13:22:27;11.80;66.80
50758;DHT22;36732;47.980;11.652;2024-03-02T13:24:53;11.80;66.60
50758;DHT22;36732;47.980;11.652;2024-03-02T13:27:20;11.80;66.30
50758;DHT22;36732;47.980;11.652;2024-03-02T13:29:47;11.90;66.40
50758;DHT22;36732;47.980;11.652;2024-03-02T13:32:16;11.80;66.40
50758;DHT22;36732;47.980;11.652;2024-03-02T13:34:42;11.90;66.40
50758;DHT22;36732;47.980;11.652;2024-03-02T13:37:09;11.90;66.30
50758;DHT22;36732;47.980;11.652;2024-03-02T13:39:35;11.90;66.20
50758;DHT22;36732;47.980;11.652;2024-03-02T13:42:10;11.90;66.30
50758;DHT22;36732;47.980;11.652;2024-03-02T13:44:37;11.90;66.10
50758;DHT22;36732;47.980;11.652;2024-03-02T13:47:03;11.90;66.20
50758;DHT22;36732;47.980;11.652;2024-03-02T13:49:30;11.90;66.20
50758;DHT22;36732;47.980;11.652;2024-03-02T13:52:06;11.90;66.90
50758;DHT22;36732;47.980;11.652;2024-03-02T13:54:43;11.90;66.20
50758;DHT22;36732;47.980;11.652;2024-03-02T13:57:10;11.90;66.30
50758;DHT22;36732;47.980;11.652;2024-03-02T13:59:37;11.90;66.30
50758;DHT22;36732;47.980;11.652;2024-03-02T14:02:04;12.00;66.40
50758;DHT22;36732;47.980;11.652;2024-03-02T14:04:34;12.00;66.10
50758;DHT22;36732;47.980;11.652;2024-03-02T14:07:01;12.00;65.90
50758;DHT22;36732;47.980;11.652;2024-03-02T14:09:27;12.00;66.00
50758;DHT22;36732;47.980;11.652;2024-03-02T14:11:56;12.00;66.10
50758;DHT22;36732;47.980;11.652;2024-03-02T14:14:22;12.00;66.00
50758;DHT22;36732;47.980;11.652;2024-03-02T14:16:48;12.00;66.10
50758;DHT22;36732;47.980;11.652;2024-03-02T14:19:14;12.00;66.10
50758;DHT22;36732;47.980;11.652;2024-03-02T14:21:40;12.00;66.10
50758;DHT22;36732;47.980;11.652;2024-03-02T14:24:06;12.00;66.10
50758;DHT22;36732;47.980;11.652;2024-03-02T14:26:32;12.00;66.00
50758;DHT22;36732;47.980;11.652;2024-03-02T14:28:59;12.00;66.00
50758;DHT22;36732;47.980;11.652;2024-03-02T14:31:27;12.00;65.90
50758;DHT22;36732;47.980;11.652;2024-03-02T14:33:53;12.00;65.90
50758;DHT22;36732;47.980;11.652;2024-03-02T14:36:19;12.00;65.80
50758;DHT22;36732;47.980;11.652;2024-03-02T14:38:45;12.00;65.90
50758;DHT22;36732;47.980;11.652;2024-03-02T14:41:11;12.10;65.90
50758;DHT22;36732;47.980;11.652;2024-03-02T14:43:38;12.10;66.10
50758;DHT22;36732;47.980;11.652;2024-03-02T14:46:06;12.10;66.10
50758;DHT22;36732;47.980;11.652;2024-03-02T14:48:34;12.10;66.10
50758;DHT22;36732;47.980;11.652;2024-03-02T14:51:01;12.10;66.20
50758;DHT22;36732;47.980;11.652;2024-03-02T14:53:27;12.10;66.20
50758;DHT22;36732;47.980;11.652;2024-03-02T14:55:54;12.10;66.30
50758;DHT22;36732;47.980;11.652;2024-03-02T14:58:19;12.10;66.30
50758;DHT22;36732;47.980;11.652;2024-03-02T15:00:45;12.10;66.30
50758;DHT22;36732;47.980;11.652;2024-03-02T15:03:11;12.10;66.40
50758;DHT22;36732;47.980;11.652;2024-03-02T15:05:37;12.10;66.40
50758;DHT22;36732;47.980;11.652;2024-03-02T15:08:04;12.20;66.50
50758;DHT22;36732;47.980;11.652;2024-03-02T15:10:33;12.10;66.40
50758;DHT22;36732;47.980;11.652;2024-03-02T15:12:59;12.20;66.40
50758;DHT22;36732;47.980;11.652;2024-03-02T15:15:25;12.20;66.40
50758;DHT22;36732;47.980;11.652;2024-03-02T15:17:51;12.20;66.50
50758;DHT22;36732;47.980;11.652;2024-03-02T15:20:17;12.20;66.60
50758;DHT22;36732;47.980;11.652;2024-03-02T15:22:45;12.20;66.50
50758;DHT22;36732;47.980;11.652;2024-03-02T15:25:11;12.20;66.50
50758;DHT22;36732;47.980;11.652;2024-03-02T15:27:37;12.20;66.50
50758;DHT22;36732;47.980;11.652;2024-03-02T15:30:03;12.20;66.40
50758;DHT22;36732;47.980;11.652;2024-03-02T15:32:29;12.20;66.50
50758;DHT22;36732;47.980;11.652;2024-03-02T15:34:55;12.20;66.40
50758;DHT22;36732;47.980;11.652;2024-03-02T15:37:21;12.20;66.40
50758;DHT22;36732;47.980;11.652;2024-03-02T15:39:46;12.20;66.50